Time;durP1;ratioP1;P1;durP2;ratioP2;P2;SDS_P1;SDS_P2;PMS_P1;PMS_P2;Temp;Humidity;BMP_temperature;BMP_pressure;BME280_temperature;BME280_humidity;BME280_pressure;Samples;Min_cycle;Max_cycle;Signal;HPM_P1;HPM_P2
2022/10/28 00:00:30;;;;;;;8.35;3.97;;;;;;;19.67;84.66;100546.59;5052069;28;20057;-67
2022/10/28 00:03:00;;;;;;;9.13;3.58;;;;;;;19.62;84.25;100533.44;5051685;28;20072;-66
2022/10/28 00:05:28;;;;;;;11.02;4.82;;;;;;;19.71;84.35;100541.09;5047031;28;20049;-70
2022/10/28 00:07:55;;;;;;;8.93;3.65;;;;;;;19.71;84.16;100541.09;5049966;28;20060;-69
2022/10/28 00:10:22;;;;;;;7.60;2.70;;;;;;;19.72;84.00;100562.56;5047522;28;20052;-66
2022/10/28 00:12:48;;;;;;;8.40;2.97;;;;;;;19.74;84.08;100552.56;5046863;28;20054;-67
2022/10/28 00:15:15;;;;;;;6.75;3.08;;;;;;;19.76;83.93;100538.03;5049154;28;20408;-66
2022/10/28 00:17:42;;;;;;;6.50;3.28;;;;;;;19.72;83.54;100537.06;5050976;28;20060;-66
2022/10/28 00:20:10;;;;;;;14.27;2.95;;;;;;;19.72;83.68;100523.72;5049624;28;20403;-66
2022/10/28 00:22:37;;;;;;;10.63;4.25;;;;;;;19.78;83.39;100513.03;5050932;28;20064;-67
2022/10/28 00:25:06;;;;;;;4.65;3.17;;;;;;;19.76;83.03;100492.69;5047341;28;20409;-68
2022/10/28 00:27:35;;;;;;;10.30;3.30;;;;;;;19.83;83.09;100522.19;5049257;28;20154;-67
2022/10/28 00:30:02;;;;;;;7.32;3.30;;;;;;;19.77;83.26;100537.72;5046443;28;20053;-67
2022/10/28 00:32:30;;;;;;;4.47;2.83;;;;;;;19.74;82.98;100521.41;5043147;28;20044;-66
2022/10/28 00:34:57;;;;;;;11.57;3.15;;;;;;;19.77;82.92;100545.38;5046071;28;20534;-67
2022/10/28 00:37:24;;;;;;;11.35;3.85;;;;;;;19.79;82.87;100572.19;5047911;28;20053;-67
2022/10/28 00:39:50;;;;;;;7.35;3.60;;;;;;;19.76;83.16;100564.41;5046006;28;20728;-65
2022/10/28 00:42:21;;;;;;;9.00;3.03;;;;;;;19.78;82.83;100545.03;5051316;28;20063;-68
2022/10/28 00:44:58;;;;;;;5.30;2.85;;;;;;;19.80;82.11;100564.53;5051901;28;20049;-66
2022/10/28 00:47:50;;;;;;;6.95;3.28;;;;;;;19.71;82.12;100558.09;5046679;28;20148;-67
2022/10/28 00:50:40;;;;;;;4.40;2.90;;;;;;;19.49;82.36;100554.34;5050004;28;20065;-66
2022/10/28 00:53:14;;;;;;;9.57;3.83;;;;;;;19.31;83.16;100532.91;5040075;28;20132;-66
2022/10/28 00:55:44;;;;;;;7.47;3.33;;;;;;;19.02;84.24;100530.88;5051440;28;20052;-67
2022/10/28 00:58:11;;;;;;;4.07;2.67;;;;;;;18.95;85.08;100556.88;5050423;28;20060;-67
2022/10/28 01:00:38;;;;;;;6.30;3.03;;;;;;;18.87;85.35;100554.88;5047183;28;20052;-67
2022/10/28 01:03:05;;;;;;;4.63;2.83;;;;;;;18.69;85.85;100535.09;5047327;28;20136;-67
2022/10/28 01:05:34;;;;;;;6.95;2.50;;;;;;;18.57;86.62;100548.28;5052457;28;20327;-68
2022/10/28 01:08:03;;;;;;;5.03;3.83;;;;;;;18.64;87.16;100554.25;5055445;28;20056;-67
2022/10/28 01:10:42;;;;;;;6.70;2.95;;;;;;;18.64;87.20;100557.06;5059739;28;20048;-66
2022/10/28 01:13:33;;;;;;;9.13;3.30;;;;;;;18.70;87.31;100565.06;5067316;28;20044;-69
2022/10/28 01:16:16;;;;;;;5.70;2.85;;;;;;;18.69;87.41;100552.06;5059424;28;20049;-69
2022/10/28 01:18:46;;;;;;;5.22;3.03;;;;;;;18.76;87.38;100547.91;5052326;28;20403;-69
2022/10/28 01:21:25;;;;;;;8.60;3.38;;;;;;;18.70;87.20;100555.75;5048030;28;20060;-68
2022/10/28 01:24:25;;;;;;;20.13;3.58;;;;;;;18.66;87.73;100568.88;5054250;28;20057;-67
2022/10/28 01:27:10;;;;;;;3.72;3.15;;;;;;;18.55;87.65;100545.75;5058472;28;20049;-68
2022/10/28 01:29:40;;;;;;;6.18;3.05;;;;;;;18.60;88.17;100548.44;5050638;28;20049;-68
2022/10/28 01:32:39;;;;;;;11.25;3.50;;;;;;;18.41;88.28;100551.59;5042052;28;20056;-68
2022/10/28 01:35:28;;;;;;;5.93;4.15;;;;;;;18.43;88.90;100560.59;5044001;28;20571;-68
2022/10/28 01:37:59;;;;;;;;;;;;;;;18.09;89.96;100543.63;5042492;28;20068;-69
2022/10/28 01:40:37;;;;;;;7.43;3.97;;;;;;;18.23;89.80;100544.28;5050023;28;19927;-69
2022/10/28 01:43:03;;;;;;;5.88;3.85;;;;;;;18.29;90.11;100570.38;5046981;28;20475;-68
2022/10/28 01:45:51;;;;;;;7.07;4.78;;;;;;;18.19;90.28;100532.00;5045016;28;20045;-67
2022/10/28 01:48:24;;;;;;;10.18;4.88;;;;;;;18.07;90.53;100558.06;5046883;28;20060;-69
2022/10/28 01:51:06;;;;;;;12.23;6.15;;;;;;;17.94;90.62;100559.88;5049120;28;20127;-68
2022/10/28 01:53:38;;;;;;;8.02;7.43;;;;;;;17.85;91.15;100549.75;5048963;28;20048;-68
2022/10/28 01:56:09;;;;;;;6.57;4.28;;;;;;;17.86;91.16;100574.84;5045865;28;20049;-67
2022/10/28 01:58:37;;;;;;;10.93;10.15;;;;;;;17.77;91.72;100548.56;5063002;28;20069;-70
2022/10/28 02:01:06;;;;;;;11.77;10.80;;;;;;;17.83;91.55;100566.19;5046419;28;20041;-69
2022/10/28 02:03:33;;;;;;;11.33;10.30;;;;;;;17.80;92.12;100564.00;5047117;28;20049;-70
2022/10/28 02:06:05;;;;;;;11.02;10.18;;;;;;;17.86;92.51;100571.19;5049485;28;20294;-69
2022/10/28 02:08:58;;;;;;;11.50;10.60;;;;;;;17.67;92.47;100580.72;5047904;28;20416;-70
2022/10/28 02:11:43;;;;;;;11.25;10.25;;;;;;;17.61;92.88;100584.06;5045940;28;20048;-70
2022/10/28 02:14:28;;;;;;;10.43;9.60;;;;;;;17.56;92.64;100572.88;5047296;28;20049;-70
2022/10/28 02:17:16;;;;;;;11.95;10.80;;;;;;;17.38;92.58;100543.78;5042096;28;20052;-70
2022/10/28 02:19:50;;;;;;;10.25;9.75;;;;;;;17.34;92.87;100556.88;5046641;28;20053;-70
2022/10/28 02:22:37;;;;;;;13.88;12.82;;;;;;;17.32;93.10;100548.72;5046149;28;20053;-70
2022/10/28 02:25:34;;;;;;;10.45;9.63;;;;;;;17.36;93.20;100534.78;5062713;28;20056;-69
2022/10/28 02:28:08;;;;;;;9.80;9.02;;;;;;;17.58;92.61;100533.88;5045599;28;20460;-70
2022/10/28 02:30:53;;;;;;;9.85;9.15;;;;;;;17.59;92.38;100519.41;5044485;28;20540;-70
2022/10/28 02:33:27;;;;;;;11.13;8.85;;;;;;;17.69;92.89;100543.69;5046630;28;20045;-69
2022/10/28 02:36:03;;;;;;;10.20;9.15;;;;;;;17.75;92.81;100529.09;5049699;28;20118;-72
2022/10/28 02:38:41;;;;;;;13.65;7.75;;;;;;;17.82;92.83;100528.63;5047341;28;20072;-72
2022/10/28 02:41:17;;;;;;;10.65;8.50;;;;;;;17.86;93.00;100534.47;5047827;28;20361;-72
2022/10/28 02:43:46;;;;;;;9.00;8.05;;;;;;;17.88;93.10;100540.59;5051397;28;20049;-69
2022/10/28 02:46:15;;;;;;;7.78;7.10;;;;;;;17.84;93.30;100536.75;5045171;28;20052;-69
2022/10/28 02:48:51;;;;;;;8.57;7.73;;;;;;;17.92;93.31;100561.38;5044673;28;20488;-68
2022/10/28 02:51:27;;;;;;;10.25;7.43;;;;;;;17.97;93.16;100552.75;5044465;28;20419;-69
2022/10/28 02:54:09;;;;;;;19.00;18.00;;;;;;;17.73;93.58;100525.75;5056732;28;20491;-71
2022/10/28 02:56:40;;;;;;;21.67;20.23;;;;;;;17.64;94.20;100550.34;5063821;28;20060;-71
2022/10/28 02:59:11;;;;;;;21.10;19.80;;;;;;;17.65;94.31;100552.00;5045089;28;20518;-72
2022/10/28 03:01:39;;;;;;;22.25;20.45;;;;;;;17.62;94.64;100549.81;5048641;28;20487;-71
2022/10/28 03:04:06;;;;;;;20.35;19.25;;;;;;;17.62;94.33;100565.94;5059027;28;20052;-71
2022/10/28 03:06:32;;;;;;;20.80;19.20;;;;;;;17.64;94.57;100560.78;5045376;28;20492;-71
2022/10/28 03:08:59;;;;;;;21.90;20.23;;;;;;;17.63;94.61;100557.13;5052521;28;20061;-71
2022/10/28 03:11:26;;;;;;;20.67;19.35;;;;;;;17.62;94.81;100546.16;5049243;28;20492;-70
2022/10/28 03:13:53;;;;;;;20.85;19.75;;;;;;;17.58;94.71;100551.66;5054281;28;20503;-69
2022/10/28 03:16:20;;;;;;;21.58;20.38;;;;;;;17.53;95.10;100552.59;5052738;28;20053;-69
2022/10/28 03:18:47;;;;;;;21.70;20.27;;;;;;;17.53;95.07;100532.84;5048995;28;20048;-68
2022/10/28 03:21:14;;;;;;;22.15;20.58;;;;;;;17.54;94.81;100547.81;5045068;28;20052;-69
2022/10/28 03:23:40;;;;;;;21.55;19.90;;;;;;;17.58;94.91;100539.53;5050518;28;20056;-69
2022/10/28 03:26:07;;;;;;;22.02;20.63;;;;;;;17.54;95.04;100536.53;5048924;28;20049;-69
2022/10/28 03:28:34;;;;;;;20.77;19.77;;;;;;;17.56;95.18;100533.34;5051547;28;20068;-70
2022/10/28 03:31:01;;;;;;;22.35;20.83;;;;;;;17.51;95.05;100518.25;5053340;28;20056;-69
2022/10/28 03:33:28;;;;;;;22.20;20.85;;;;;;;17.49;94.96;100508.44;5049229;28;20064;-68
2022/10/28 03:35:56;;;;;;;22.33;20.83;;;;;;;17.49;95.17;100505.59;5046927;28;20061;-69
2022/10/28 03:38:23;;;;;;;21.15;19.95;;;;;;;17.47;95.00;100524.84;5054181;28;20412;-69
2022/10/28 03:40:50;;;;;;;22.05;20.65;;;;;;;17.46;95.28;100523.19;5049622;28;20049;-69
2022/10/28 03:43:17;;;;;;;25.75;24.13;;;;;;;17.50;95.18;100515.72;5052419;28;20056;-69
2022/10/28 03:45:44;;;;;;;25.05;23.27;;;;;;;17.46;95.18;100521.19;5052868;28;20052;-69
2022/10/28 03:48:10;;;;;;;22.52;20.52;;;;;;;17.45;95.40;100530.00;5055300;28;20044;-72
2022/10/28 03:50:37;;;;;;;21.45;20.25;;;;;;;17.44;95.35;100539.66;5053310;28;20464;-70
2022/10/28 03:53:04;;;;;;;21.17;19.60;;;;;;;17.46;95.35;100582.47;5048705;28;20060;-70
2022/10/28 03:55:31;;;;;;;4.85;4.50;;;;;;;17.29;95.48;100546.53;5042248;28;20423;-71
2022/10/28 03:58:02;;;;;;;21.30;20.00;;;;;;;17.34;95.56;100554.06;5054115;28;20053;-71
2022/10/28 04:00:29;;;;;;;12.25;11.63;;;;;;;17.37;95.78;100557.06;5051551;28;20499;-69
2022/10/28 04:02:56;;;;;;;1.10;1.10;;;;;;;17.35;95.68;100550.06;5049515;28;20083;-69
2022/10/28 04:05:23;;;;;;;20.80;19.50;;;;;;;17.35;96.04;100545.25;5043829;28;20052;-69
2022/10/28 04:07:49;;;;;;;20.52;19.33;;;;;;;17.44;95.63;100542.47;5052810;28;20059;-71
2022/10/28 04:10:16;;;;;;;19.90;18.80;;;;;;;17.52;95.95;100547.31;5045460;28;20053;-70
2022/10/28 04:12:43;;;;;;;20.77;19.58;;;;;;;17.50;95.78;100541.13;5047698;28;20056;-70
2022/10/28 04:15:10;;;;;;;20.13;18.92;;;;;;;17.46;95.56;100526.84;5053036;28;20044;-72
2022/10/28 04:17:37;;;;;;;19.67;18.58;;;;;;;17.48;95.49;100540.66;5043350;28;20060;-71
2022/10/28 04:20:04;;;;;;;0.10;0.10;;;;;;;17.44;95.27;100534.81;5051571;28;20052;-70
2022/10/28 04:22:31;;;;;;;0.10;0.10;;;;;;;17.41;95.56;100543.13;5050649;28;20388;-71
2022/10/28 04:24:59;;;;;;;0.20;0.20;;;;;;;17.44;95.69;100536.81;5049981;28;20455;-71
2022/10/28 04:27:26;;;;;;;0.15;0.15;;;;;;;17.40;95.71;100532.97;5067596;28;20048;-71
2022/10/28 04:29:52;;;;;;;0.32;0.22;;;;;;;17.46;95.51;100537.31;5048410;28;20071;-71
2022/10/28 04:32:19;;;;;;;0.28;0.28;;;;;;;17.45;95.55;100535.66;5048313;28;20672;-69
2022/10/28 04:34:46;;;;;;;0.43;0.30;;;;;;;17.46;95.83;100537.31;5039441;28;20050;-70
2022/10/28 04:37:13;;;;;;;0.10;0.10;;;;;;;17.49;95.65;100522.53;5047944;28;20045;-70
2022/10/28 04:39:46;;;;;;;0.45;0.30;;;;;;;17.47;95.78;100533.31;5053468;28;20071;-68
2022/10/28 04:42:13;;;;;;;0.15;0.15;;;;;;;17.42;95.66;100536.31;5050950;28;20059;-68
2022/10/28 04:44:40;;;;;;;0.22;0.22;;;;;;;17.47;95.53;100555.91;5046675;28;20044;-68
2022/10/28 04:47:06;;;;;;;0.10;0.10;;;;;;;17.48;95.85;100543.47;5049637;28;20049;-69
2022/10/28 04:49:33;;;;;;;0.28;0.20;;;;;;;17.51;95.57;100537.19;5051042;28;20076;-69
2022/10/28 04:52:04;;;;;;;0.75;0.20;;;;;;;17.49;95.65;100543.13;5048128;28;20071;-69
2022/10/28 04:54:31;;;;;;;0.20;0.20;;;;;;;17.51;95.72;100549.28;5051608;28;20064;-69
2022/10/28 04:56:58;;;;;;;0.10;0.10;;;;;;;17.55;95.86;100552.28;5057981;28;20064;-69
2022/10/28 04:59:25;;;;;;;0.10;0.10;;;;;;;17.56;95.76;100548.31;5052505;28;20099;-69
2022/10/28 05:01:52;;;;;;;0.10;0.10;;;;;;;17.61;95.96;100544.50;5052610;28;20060;-69
2022/10/28 05:04:18;;;;;;;0.10;0.10;;;;;;;17.58;95.58;100546.00;5052993;28;20497;-68
2022/10/28 05:06:45;;;;;;;0.13;0.10;;;;;;;17.62;95.87;100541.34;5051047;28;20048;-69
2022/10/28 05:09:12;;;;;;;0.22;0.22;;;;;;;17.62;95.62;100530.06;5050972;28;20059;-72
2022/10/28 05:11:39;;;;;;;0.30;0.22;;;;;;;17.68;96.01;100548.50;5054985;28;20052;-70
2022/10/28 05:14:06;;;;;;;0.10;0.10;;;;;;;17.74;95.90;100547.22;5038982;28;20041;-71
2022/10/28 05:16:33;;;;;;;0.10;0.10;;;;;;;17.79;95.89;100545.41;5041526;28;20049;-70
2022/10/28 05:18:59;;;;;;;0.20;0.20;;;;;;;17.85;95.83;100556.22;5050881;28;20067;-71
2022/10/28 05:21:26;;;;;;;0.20;0.20;;;;;;;17.88;95.66;100549.06;5047755;28;20475;-72
2022/10/28 05:23:53;;;;;;;0.20;0.17;;;;;;;17.93;95.99;100546.91;5044821;28;20042;-72
2022/10/28 05:26:20;;;;;;;0.20;0.20;;;;;;;17.94;96.00;100536.44;5049529;28;20056;-71
2022/10/28 05:28:50;;;;;;;0.10;0.10;;;;;;;17.96;95.46;100531.31;5053563;28;20052;-72
2022/10/28 05:31:17;;;;;;;2.00;1.90;;;;;;;17.92;95.73;100544.44;5047895;28;20057;-72
2022/10/28 05:33:44;;;;;;;0.20;0.20;;;;;;;17.90;95.68;100535.44;5041973;28;20049;-74
2022/10/28 05:36:11;;;;;;;0.13;0.13;;;;;;;17.86;95.38;100529.63;5057417;28;20049;-68
2022/10/28 05:38:39;;;;;;;0.17;0.17;;;;;;;17.81;95.44;100528.94;5066592;28;20053;-71
2022/10/28 05:41:05;;;;;;;0.20;0.20;;;;;;;17.75;95.52;100517.78;5068088;28;20057;-70
2022/10/28 05:43:32;;;;;;;0.30;0.28;;;;;;;17.69;95.40;100530.41;5066526;28;20072;-66
2022/10/28 05:45:59;;;;;;;0.10;0.10;;;;;;;17.67;95.60;100532.72;5054705;28;20053;-65
2022/10/28 05:48:26;;;;;;;1.27;0.85;;;;;;;17.68;95.63;100523.09;5043621;28;20045;-63
2022/10/28 05:50:53;;;;;;;0.22;0.22;;;;;;;17.60;95.60;100525.88;5044133;28;20049;-65
2022/10/28 05:53:20;;;;;;;0.57;0.52;;;;;;;17.57;95.68;100535.84;5044423;28;20052;-64
2022/10/28 05:55:46;;;;;;;0.32;0.32;;;;;;;17.59;96.06;100538.34;5039605;28;20049;-64
2022/10/28 05:58:14;;;;;;;0.40;0.30;;;;;;;17.57;95.88;100530.19;5039109;28;20144;-63
2022/10/28 06:00:41;;;;;;;0.63;0.38;;;;;;;17.56;96.24;100510.78;5043663;28;20052;-63
2022/10/28 06:03:10;;;;;;;0.22;0.20;;;;;;;17.57;95.95;100516.06;5041752;28;20051;-64
2022/10/28 06:05:43;;;;;;;0.40;0.30;;;;;;;17.58;96.00;100509.28;5041116;28;20466;-63
2022/10/28 06:08:11;;;;;;;0.10;0.10;;;;;;;17.62;95.92;100512.28;5042425;28;20049;-63
2022/10/28 06:10:38;;;;;;;0.10;0.10;;;;;;;17.61;95.93;100508.63;5042814;28;20052;-62
2022/10/28 06:13:06;;;;;;;0.90;0.70;;;;;;;17.59;95.70;100530.72;5042746;28;20546;-64
2022/10/28 06:15:33;;;;;;;0.20;0.20;;;;;;;17.51;96.19;100523.06;5046421;28;20052;-63
2022/10/28 06:17:59;;;;;;;0.10;0.10;;;;;;;17.58;96.13;100537.53;5041465;28;20531;-64
2022/10/28 06:20:26;;;;;;;0.32;0.32;;;;;;;17.60;96.29;100528.72;5041136;28;20057;-64
2022/10/28 06:22:55;;;;;;;0.47;0.30;;;;;;;17.62;96.38;100509.47;5045747;28;20411;-63
2022/10/28 06:25:24;;;;;;;0.03;0.03;;;;;;;17.64;96.33;100510.81;5044895;28;20204;-64
2022/10/28 06:27:52;;;;;;;0.10;0.10;;;;;;;17.63;96.31;100506.28;5043786;28;20045;-64
2022/10/28 06:30:20;;;;;;;0.22;0.22;;;;;;;17.62;96.37;100510.28;5044842;28;20472;-64
2022/10/28 06:32:47;;;;;;;0.68;0.45;;;;;;;17.61;96.50;100503.00;5040985;28;20076;-64
2022/10/28 06:35:14;;;;;;;0.30;0.20;;;;;;;17.60;96.08;100490.00;5042645;28;20064;-64
2022/10/28 06:37:40;;;;;;;0.20;0.20;;;;;;;17.58;96.44;100500.00;5041304;28;20053;-64
2022/10/28 06:40:08;;;;;;;2.45;0.30;;;;;;;17.60;96.24;100490.00;5043175;28;20053;-64
2022/10/28 06:42:35;;;;;;;0.20;0.20;;;;;;;17.62;96.33;100501.81;5041108;28;20135;-64
2022/10/28 06:45:02;;;;;;;0.38;0.35;;;;;;;17.63;96.34;100495.00;5042991;28;20092;-63
2022/10/28 06:47:29;;;;;;;0.10;0.10;;;;;;;17.69;96.04;100513.47;5044299;28;20629;-62
2022/10/28 06:49:56;;;;;;;0.30;0.30;;;;;;;17.71;96.24;100519.63;5050779;28;20297;-63
2022/10/28 06:52:23;;;;;;;0.20;0.20;;;;;;;17.72;95.88;100518.44;5048058;28;20053;-64
2022/10/28 06:54:50;;;;;;;0.20;0.20;;;;;;;17.74;95.90;100521.78;5046419;28;20923;-63
2022/10/28 06:57:16;;;;;;;0.10;0.10;;;;;;;17.77;95.86;100520.31;5042329;28;20064;-63
2022/10/28 06:59:43;;;;;;;0.10;0.10;;;;;;;17.77;95.82;100512.66;5039525;28;20511;-64
2022/10/28 07:02:10;;;;;;;0.10;0.10;;;;;;;17.79;95.73;100515.16;5031443;28;20049;-63
2022/10/28 07:04:37;;;;;;;0.10;0.10;;;;;;;17.83;95.38;100519.00;5053362;28;20098;-63
2022/10/28 07:07:04;;;;;;;0.10;0.10;;;;;;;17.84;95.56;100512.16;5053730;28;20045;-64
2022/10/28 07:09:32;;;;;;;0.22;0.22;;;;;;;17.73;95.44;100508.81;5049378;28;20056;-63
2022/10/28 07:11:59;;;;;;;0.08;0.08;;;;;;;17.64;95.71;100507.97;5043203;28;20499;-64
2022/10/28 07:14:33;;;;;;;0.17;0.17;;;;;;;17.61;95.95;100505.81;5048044;28;20044;-63
2022/10/28 07:17:00;;;;;;;0.43;0.43;;;;;;;17.57;96.02;100498.31;5049373;28;20057;-63
2022/10/28 07:19:27;;;;;;;0.28;0.20;;;;;;;17.56;96.14;100491.00;5050808;28;20060;-65
2022/10/28 07:21:54;;;;;;;0.40;0.40;;;;;;;17.57;96.10;100493.47;5055696;28;20071;-64
2022/10/28 07:24:21;;;;;;;0.30;0.30;;;;;;;17.57;96.04;100495.47;5037457;28;20164;-64
2022/10/28 07:26:48;;;;;;;4.00;3.80;;;;;;;17.59;95.67;100493.19;5037510;28;20054;-63
2022/10/28 07:29:19;;;;;;;2.10;2.00;;;;;;;17.68;95.73;100491.22;5048207;28;20049;-62
2022/10/28 07:31:46;;;;;;;4.35;4.15;;;;;;;17.71;95.33;100510.31;5049798;28;20052;-63
2022/10/28 07:34:13;;;;;;;9.20;8.80;;;;;;;17.72;95.60;100501.50;5051314;28;20041;-64
2022/10/28 07:36:40;;;;;;;18.25;17.45;;;;;;;17.75;95.43;100503.66;5052546;28;20530;-64
2022/10/28 07:39:08;;;;;;;15.77;15.07;;;;;;;17.73;95.40;100510.81;5049440;28;20049;-64
2022/10/28 07:41:36;;;;;;;15.13;14.43;;;;;;;17.76;95.43;100488.41;5049625;28;20122;-63
2022/10/28 07:44:03;;;;;;;18.00;17.20;;;;;;;17.76;95.19;100522.31;5048844;28;20045;-64
2022/10/28 07:46:29;;;;;;;15.75;15.05;;;;;;;17.77;95.35;100532.44;5050642;28;20053;-63
2022/10/28 07:48:56;;;;;;;13.77;13.18;;;;;;;17.80;95.19;100532.94;5051798;28;20059;-64
2022/10/28 07:51:23;;;;;;;17.85;17.10;;;;;;;17.79;95.13;100514.34;5053543;28;20084;-63
2022/10/28 07:53:50;;;;;;;11.32;10.82;;;;;;;17.79;95.42;100534.13;5048701;28;20052;-63
2022/10/28 07:56:17;;;;;;;10.02;9.63;;;;;;;17.74;95.23;100537.88;5050617;28;20432;-63
2022/10/28 07:58:44;;;;;;;7.13;6.82;;;;;;;17.85;95.05;100544.94;5048475;28;20049;-63
2022/10/28 08:01:14;;;;;;;7.50;7.07;;;;;;;17.82;94.91;100541.94;5048321;28;20049;-62
2022/10/28 08:03:41;;;;;;;6.20;5.90;;;;;;;17.86;95.17;100545.75;5051476;28;20405;-63
2022/10/28 08:06:11;;;;;;;5.05;4.80;;;;;;;17.91;95.08;100506.03;5042501;28;20068;-63
2022/10/28 08:08:38;;;;;;;6.35;5.95;;;;;;;17.95;95.03;100543.78;5050502;28;20064;-63
2022/10/28 08:11:13;;;;;;;6.30;5.80;;;;;;;17.98;94.71;100537.44;5052469;28;20045;-63
2022/10/28 08:13:41;;;;;;;13.05;6.22;;;;;;;17.90;94.35;100541.09;5049113;28;20052;-64
2022/10/28 08:16:08;;;;;;;9.30;8.40;;;;;;;17.92;94.63;100527.50;5044153;28;20049;-63
2022/10/28 08:18:36;;;;;;;9.55;8.82;;;;;;;17.85;94.47;100507.38;5044748;28;20045;-63
2022/10/28 08:21:05;;;;;;;7.28;6.40;;;;;;;17.72;94.16;100501.50;5051120;28;20053;-62
2022/10/28 08:23:33;;;;;;;9.30;8.05;;;;;;;17.65;94.39;100500.34;5048760;28;20064;-63
2022/10/28 08:26:00;;;;;;;8.38;7.50;;;;;;;17.71;94.78;100521.63;5052986;28;20057;-62
2022/10/28 08:28:27;;;;;;;9.25;8.27;;;;;;;17.76;94.53;100539.25;5046894;28;20053;-63
2022/10/28 08:30:59;;;;;;;13.77;8.90;;;;;;;17.81;94.33;100545.91;5045991;28;20053;-62
2022/10/28 08:33:36;;;;;;;19.83;12.77;;;;;;;17.89;94.44;100559.22;5045540;28;20049;-64
2022/10/28 08:36:04;;;;;;;16.23;11.10;;;;;;;17.91;94.32;100566.19;5044497;28;20049;-63
2022/10/28 08:38:31;;;;;;;16.27;11.93;;;;;;;17.95;94.04;100550.25;5049560;28;20049;-63
2022/10/28 08:41:01;;;;;;;11.30;9.90;;;;;;;18.00;93.78;100564.22;5045822;28;20052;-62
2022/10/28 08:43:47;;;;;;;11.20;8.93;;;;;;;18.02;93.86;100572.38;5044732;28;20057;-64
2022/10/28 08:46:41;;;;;;;13.25;9.70;;;;;;;18.13;93.57;100579.38;5046895;28;20057;-62
2022/10/28 08:49:15;;;;;;;13.00;11.57;;;;;;;18.11;93.58;100586.50;5046339;28;20048;-62
2022/10/28 08:51:56;;;;;;;13.05;9.77;;;;;;;18.13;92.92;100590.66;5048611;28;20061;-62
2022/10/28 08:54:39;;;;;;;9.25;7.38;;;;;;;18.09;92.88;100606.63;5046774;28;20488;-65
2022/10/28 08:57:15;;;;;;;10.65;8.52;;;;;;;18.16;93.29;100606.13;5045137;28;20056;-65
2022/10/28 08:59:45;;;;;;;9.85;7.50;;;;;;;18.13;93.31;100607.63;5045512;28;20079;-63
2022/10/28 09:02:25;;;;;;;9.40;7.00;;;;;;;18.21;92.96;100603.97;5047205;28;20049;-62
2022/10/28 09:05:13;;;;;;;8.00;7.20;;;;;;;18.23;92.29;100624.28;5043644;28;20048;-63
2022/10/28 09:07:39;;;;;;;10.82;6.85;;;;;;;18.26;92.31;100633.25;5049163;28;20060;-63
2022/10/28 09:10:07;;;;;;;5.80;5.30;;;;;;;18.27;91.92;100634.91;5045974;28;20049;-62
2022/10/28 09:13:13;;;;;;;9.43;6.78;;;;;;;18.29;91.78;100649.53;5045899;28;20056;-63
2022/10/28 09:15:56;;;;;;;5.97;5.38;;;;;;;18.29;91.58;100650.41;5047236;28;20400;-63
2022/10/28 09:18:38;;;;;;;8.43;5.88;;;;;;;18.42;91.52;100651.38;5049521;28;20057;-63
2022/10/28 09:21:31;;;;;;;7.00;6.18;;;;;;;18.28;91.29;100659.19;5049385;28;20079;-62
2022/10/28 09:24:06;;;;;;;7.72;6.03;;;;;;;18.17;91.53;100608.63;5044689;28;20053;-63
2022/10/28 09:27:04;;;;;;;8.63;7.13;;;;;;;18.12;91.30;100650.34;5057033;28;20809;-63
2022/10/28 09:29:40;;;;;;;11.45;10.75;;;;;;;17.96;91.53;100647.16;5044860;28;20041;-63
2022/10/28 09:32:25;;;;;;;8.70;7.90;;;;;;;17.86;92.49;100651.09;5045730;28;20162;-63
2022/10/28 09:35:01;;;;;;;9.02;7.75;;;;;;;17.92;92.72;100646.16;5046394;28;20423;-62
2022/10/28 09:37:36;;;;;;;10.13;8.88;;;;;;;17.98;92.82;100642.00;5049551;28;20056;-62
2022/10/28 09:40:23;;;;;;;7.35;6.53;;;;;;;18.02;91.97;100636.50;5046263;28;20053;-63
2022/10/28 09:42:58;;;;;;;8.00;7.22;;;;;;;18.11;91.87;100637.38;5045138;28;20045;-63
2022/10/28 09:45:31;;;;;;;11.18;7.05;;;;;;;18.17;91.79;100631.22;5044961;28;20049;-64
2022/10/28 09:48:09;;;;;;;9.18;7.75;;;;;;;18.25;91.79;100638.06;5040597;28;20534;-64
2022/10/28 09:50:37;;;;;;;6.15;5.57;;;;;;;18.26;91.63;100633.25;5044019;28;20563;-63
2022/10/28 09:54:05;;;;;;;10.75;6.63;;;;;;;18.40;90.71;100629.09;5046368;28;20496;-62
2022/10/28 09:56:32;;;;;;;7.65;6.28;;;;;;;18.58;90.44;100629.94;5029344;28;20397;-62
2022/10/28 09:59:01;;;;;;;5.15;4.75;;;;;;;18.64;90.19;100622.13;5040958;28;20389;-62
2022/10/28 10:01:35;;;;;;;8.68;6.88;;;;;;;18.80;89.46;100613.97;5047800;28;20047;-62
2022/10/28 10:04:16;;;;;;;6.50;5.32;;;;;;;18.86;88.28;100610.63;5043599;28;20045;-62
2022/10/28 10:06:45;;;;;;;7.50;6.78;;;;;;;18.94;88.50;100609.81;5040600;28;20056;-62
2022/10/28 10:09:22;;;;;;;6.57;6.05;;;;;;;18.89;87.88;100601.47;5047778;28;20415;-63
2022/10/28 10:11:53;;;;;;;10.15;6.22;;;;;;;19.03;88.40;100603.28;5045819;28;20068;-63
2022/10/28 10:14:46;;;;;;;6.03;5.43;;;;;;;18.98;88.23;100578.84;5043468;28;20052;-63
2022/10/28 10:17:44;;;;;;;5.28;4.88;;;;;;;19.01;87.06;100582.97;5042785;28;20099;-63
2022/10/28 10:20:17;;;;;;;7.65;5.93;;;;;;;19.20;86.54;100593.94;5045704;28;20060;-62
2022/10/28 10:22:46;;;;;;;8.48;6.60;;;;;;;19.39;87.00;100591.53;5048553;28;20064;-63
2022/10/28 10:25:16;;;;;;;5.32;4.85;;;;;;;19.46;86.00;100591.00;5048725;28;20163;-63
2022/10/28 10:27:53;;;;;;;9.18;5.18;;;;;;;19.61;85.14;100588.41;5047523;28;20061;-62
2022/10/28 10:30:25;;;;;;;9.48;6.22;;;;;;;19.80;85.39;100575.88;5045058;28;20050;-63
2022/10/28 10:32:52;;;;;;;4.82;4.53;;;;;;;19.92;84.75;100569.44;5047358;28;20060;-63
2022/10/28 10:35:24;;;;;;;5.22;4.80;;;;;;;20.03;82.28;100565.88;5044960;28;20055;-63
2022/10/28 10:37:52;;;;;;;7.53;4.63;;;;;;;20.15;83.41;100581.31;5048571;28;20057;-63
2022/10/28 10:40:26;;;;;;;5.07;4.37;;;;;;;20.25;82.79;100561.06;5046677;28;20099;-63
2022/10/28 10:42:53;;;;;;;4.50;3.88;;;;;;;20.40;82.53;100553.91;5046951;28;20313;-62
2022/10/28 10:45:39;;;;;;;4.28;3.88;;;;;;;20.46;81.54;100544.84;5046874;28;20063;-62
2022/10/28 10:48:12;;;;;;;7.85;4.10;;;;;;;20.54;81.40;100563.81;5044203;28;20519;-63
2022/10/28 10:50:40;;;;;;;3.83;3.20;;;;;;;20.51;80.01;100564.53;5046921;28;20084;-62
2022/10/28 10:53:18;;;;;;;6.17;4.20;;;;;;;20.55;78.97;100571.16;5044579;28;20049;-64
2022/10/28 10:55:57;;;;;;;5.45;3.95;;;;;;;20.59;79.07;100580.63;5040110;28;20059;-64
2022/10/28 10:58:27;;;;;;;4.82;4.43;;;;;;;20.59;78.21;100580.63;5044244;28;20488;-63
2022/10/28 11:00:55;;;;;;;3.83;3.53;;;;;;;20.59;75.00;100559.94;5041651;28;20523;-63
2022/10/28 11:03:45;;;;;;;3.92;3.63;;;;;;;20.81;74.54;100602.13;5043086;28;20045;-63
2022/10/28 11:06:22;;;;;;;4.85;3.80;;;;;;;20.98;74.65;100584.09;5043517;28;20450;-63
2022/10/28 11:09:01;;;;;;;3.20;3.00;;;;;;;20.98;74.00;100581.25;5043568;28;20053;-63
2022/10/28 11:11:38;;;;;;;3.78;3.47;;;;;;;21.06;74.15;100576.69;5046974;28;20412;-63
2022/10/28 11:14:08;;;;;;;3.50;3.20;;;;;;;21.10;72.68;100582.47;5041051;28;20048;-62
2022/10/28 11:16:46;;;;;;;;;;;;;;;20.89;72.59;100566.34;5047757;28;20057;-63
2022/10/28 11:19:37;;;;;;;3.72;3.42;;;;;;;21.07;71.93;100589.69;5047040;28;19944;-63
2022/10/28 11:22:45;;;;;;;4.40;3.85;;;;;;;21.12;71.09;100526.16;5044631;28;20053;-63
2022/10/28 11:25:42;;;;;;;4.35;3.95;;;;;;;21.14;71.38;100580.59;5023472;28;20056;-63
2022/10/28 11:28:18;;;;;;;4.18;3.78;;;;;;;21.10;71.28;100591.81;5042271;28;20046;-62
2022/10/28 11:31:06;;;;;;;3.97;3.58;;;;;;;20.87;70.85;100594.22;5047256;28;20055;-63
2022/10/28 11:34:16;;;;;;;6.05;3.35;;;;;;;20.61;72.44;100573.78;5047348;28;20552;-63
2022/10/28 11:36:57;;;;;;;3.45;3.22;;;;;;;20.59;73.21;100521.06;5044443;28;20056;-62
2022/10/28 11:39:54;;;;;;;4.05;3.65;;;;;;;20.39;72.81;100586.28;5051472;28;20056;-62
2022/10/28 11:42:42;;;;;;;11.75;3.00;;;;;;;19.98;74.69;100557.56;5037905;28;20060;-63
2022/10/28 11:45:31;;;;;;;4.82;3.20;;;;;;;19.94;75.58;100539.59;5051542;28;20049;-63